createdAt,value
2019-03-19T00:00:56.823Z,6.53
2019-03-19T00:03:25.628Z,4.30
2019-03-19T00:05:54.671Z,3.60
2019-03-19T00:08:36.184Z,4.87
2019-03-19T00:11:05.004Z,6.12
2019-03-19T00:13:33.725Z,5.70
2019-03-19T00:16:08.788Z,4.50
2019-03-19T00:18:37.590Z,5.58
2019-03-19T00:21:06.332Z,4.90
2019-03-19T00:23:41.927Z,5.75
2019-03-19T00:26:10.668Z,4.22
2019-03-19T00:28:52.972Z,4.77
2019-03-19T00:31:21.729Z,5.67
2019-03-19T00:33:50.469Z,6.78
2019-03-19T00:36:25.395Z,5.45
2019-03-19T00:38:54.138Z,6.55
2019-03-19T00:41:22.845Z,6.05
2019-03-19T00:43:58.425Z,5.47
2019-03-19T00:46:27.202Z,5.83
2019-03-19T00:48:55.932Z,6.03
2019-03-19T00:51:31.856Z,5.53
2019-03-19T00:54:06.952Z,4.92
2019-03-19T00:56:42.694Z,4.70
2019-03-19T00:59:11.434Z,5.60
2019-03-19T01:01:40.220Z,5.12
2019-03-19T01:04:15.621Z,4.53
2019-03-19T01:06:44.505Z,5.83
2019-03-19T01:09:13.337Z,7.35
2019-03-19T01:11:48.625Z,5.42
2019-03-19T01:14:17.379Z,6.58
2019-03-19T01:16:46.191Z,6.45
2019-03-19T01:19:21.069Z,5.58
2019-03-19T01:21:51.211Z,3.90
2019-03-19T01:24:20.043Z,4.92
2019-03-19T01:26:55.593Z,5.63
2019-03-19T01:29:31.422Z,5.47
2019-03-19T01:32:06.717Z,6.58
2019-03-19T01:34:35.506Z,5.15
2019-03-19T01:37:04.294Z,5.42
2019-03-19T01:39:39.645Z,5.72
2019-03-19T01:42:08.390Z,5.58
2019-03-19T01:44:37.121Z,5.78
2019-03-19T01:47:12.742Z,5.53
2019-03-19T01:49:48.295Z,5.62
2019-03-19T01:52:30.229Z,6.17
2019-03-19T01:54:59.010Z,8.08
2019-03-19T01:57:27.757Z,6.12
2019-03-19T02:00:03.447Z,5.73
2019-03-19T02:02:32.210Z,7.37
2019-03-19T02:05:00.970Z,5.92
2019-03-19T02:07:36.548Z,4.97
2019-03-19T02:10:05.914Z,4.90
2019-03-19T02:12:34.762Z,5.25
2019-03-19T02:15:09.920Z,5.23
2019-03-19T02:17:38.773Z,4.35
2019-03-19T02:20:09.374Z,7.92
2019-03-19T02:22:44.927Z,3.58
2019-03-19T02:25:13.721Z,4.97
2019-03-19T02:27:42.496Z,4.78
2019-03-19T02:30:24.977Z,5.47
2019-03-19T02:32:53.742Z,4.95
2019-03-19T02:35:22.486Z,5.25
2019-03-19T02:37:58.578Z,4.30
2019-03-19T02:40:27.285Z,4.87
2019-03-19T02:42:56.024Z,6.28
2019-03-19T02:45:31.644Z,6.92
2019-03-19T02:48:00.388Z,6.20
2019-03-19T02:50:42.114Z,5.35
2019-03-19T02:53:17.742Z,4.83
2019-03-19T02:55:54.582Z,4.62
2019-03-19T02:58:23.322Z,4.95
2019-03-19T03:00:52.048Z,7.25
2019-03-19T03:03:27.409Z,5.72
2019-03-19T03:05:56.153Z,5.00
2019-03-19T03:08:24.889Z,6.10
2019-03-19T03:10:59.928Z,6.72
2019-03-19T03:13:28.692Z,5.95
2019-03-19T03:15:57.417Z,7.20
2019-03-19T03:18:32.998Z,5.53
2019-03-19T03:21:01.767Z,4.17
2019-03-19T03:23:30.534Z,4.80
2019-03-19T03:26:06.167Z,5.67
2019-03-19T03:28:34.949Z,6.12
2019-03-19T03:31:16.746Z,7.10
2019-03-19T03:33:45.531Z,5.45
2019-03-19T03:36:14.262Z,6.92
2019-03-19T03:38:50.130Z,5.25
2019-03-19T03:41:18.863Z,7.92
2019-03-19T03:43:47.612Z,4.92
2019-03-19T03:46:22.437Z,5.62
2019-03-19T03:48:51.163Z,6.50
2019-03-19T03:51:33.207Z,7.25
2019-03-19T03:54:08.864Z,5.53
2019-03-19T03:56:44.444Z,5.05
2019-03-19T03:59:13.176Z,4.85
2019-03-19T04:01:42.053Z,4.37
2019-03-19T04:04:17.296Z,5.35
2019-03-19T04:06:46.183Z,5.17
2019-03-19T04:09:14.981Z,6.00
2019-03-19T04:11:50.248Z,5.55
2019-03-19T04:14:19.460Z,5.67
2019-03-19T04:16:48.260Z,4.22
2019-03-19T04:19:23.217Z,7.37
2019-03-19T04:21:51.957Z,5.25
2019-03-19T04:24:20.690Z,5.25
2019-03-19T04:26:56.037Z,4.85
2019-03-19T04:29:24.838Z,4.53
2019-03-19T04:32:09.482Z,5.17
2019-03-19T04:34:38.209Z,4.78
2019-03-19T04:37:06.961Z,6.08
2019-03-19T04:39:42.713Z,5.22
2019-03-19T04:42:11.582Z,5.87
2019-03-19T04:44:40.387Z,5.97
2019-03-19T04:47:16.108Z,6.03
2019-03-19T04:49:44.942Z,6.42
2019-03-19T04:52:26.396Z,5.60
2019-03-19T04:55:01.293Z,5.65
2019-03-19T04:57:36.418Z,6.60
2019-03-19T05:00:05.823Z,5.05
2019-03-19T05:02:34.698Z,4.22
2019-03-19T05:05:10.065Z,4.20
2019-03-19T05:07:38.867Z,6.17
2019-03-19T05:10:09.773Z,6.80
2019-03-19T05:12:48.315Z,6.40
2019-03-19T05:15:17.114Z,4.17
2019-03-19T05:17:45.815Z,5.22
2019-03-19T05:20:21.105Z,4.90
2019-03-19T05:22:49.835Z,5.53
2019-03-19T05:25:18.739Z,5.47
2019-03-19T05:27:53.862Z,4.67
2019-03-19T05:30:22.626Z,4.42
2019-03-19T05:33:05.001Z,5.25
2019-03-19T05:35:33.694Z,7.33
2019-03-19T05:38:04.821Z,5.37
2019-03-19T05:40:40.081Z,5.33
2019-03-19T05:43:08.802Z,5.20
2019-03-19T05:45:37.548Z,7.00
2019-03-19T05:48:12.759Z,6.53
2019-03-19T05:50:41.456Z,5.65
2019-03-19T05:53:23.454Z,5.20
2019-03-19T05:55:58.895Z,7.17
2019-03-19T05:58:34.076Z,5.72
2019-03-19T06:01:02.773Z,6.97
2019-03-19T06:03:32.395Z,6.60
2019-03-19T06:06:07.389Z,6.60
2019-03-19T06:08:36.368Z,4.73
2019-03-19T06:11:05.161Z,6.75
2019-03-19T06:13:40.440Z,7.10
2019-03-19T06:16:09.933Z,5.17
2019-03-19T06:18:38.779Z,5.40
2019-03-19T06:21:14.388Z,5.37
2019-03-19T06:23:43.104Z,3.40
2019-03-19T06:26:12.101Z,5.15
2019-03-19T06:28:47.814Z,6.22
2019-03-19T06:31:16.532Z,7.28
2019-03-19T06:33:59.301Z,6.10
2019-03-19T06:36:28.032Z,4.53
2019-03-19T06:38:56.771Z,4.43
2019-03-19T06:41:32.449Z,5.23
2019-03-19T06:44:01.187Z,4.30
2019-03-19T06:46:29.923Z,6.10
2019-03-19T06:49:05.593Z,5.47
2019-03-19T06:51:34.346Z,5.42
2019-03-19T06:54:15.431Z,5.47
2019-03-19T06:56:51.080Z,6.25
2019-03-19T06:59:26.670Z,6.12
2019-03-19T07:01:55.403Z,5.72
2019-03-19T07:04:24.111Z,5.60
2019-03-19T07:06:59.055Z,4.58
2019-03-19T07:09:27.804Z,4.92
2019-03-19T07:11:56.529Z,4.70
2019-03-19T07:14:31.543Z,4.60
2019-03-19T07:17:00.226Z,4.30
2019-03-19T07:19:28.972Z,5.05
2019-03-19T07:22:05.156Z,4.27
2019-03-19T07:24:33.905Z,6.65
2019-03-19T07:27:02.598Z,6.85
2019-03-19T07:29:39.513Z,4.62
2019-03-19T07:32:08.221Z,5.92
2019-03-19T07:34:50.690Z,5.47
2019-03-19T07:37:20.383Z,4.37
2019-03-19T07:39:51.894Z,5.97
2019-03-19T07:42:26.802Z,6.53
2019-03-19T07:44:55.504Z,4.73
2019-03-19T07:47:24.188Z,3.87
2019-03-19T07:49:59.566Z,4.15
2019-03-19T07:52:28.259Z,3.33
2019-03-19T07:55:10.599Z,3.98
2019-03-19T07:57:47.009Z,3.60
2019-03-19T08:00:24.123Z,3.25
2019-03-19T08:02:52.837Z,3.37
2019-03-19T08:05:32.661Z,4.50
2019-03-19T08:07:59.652Z,2.25
2019-03-19T08:10:29.779Z,4.40
2019-03-19T08:12:59.428Z,3.30
2019-03-19T08:15:35.884Z,2.60
2019-03-19T08:18:04.812Z,3.25
2019-03-19T08:20:33.580Z,3.00
2019-03-19T08:23:09.229Z,2.40
2019-03-19T08:25:37.964Z,3.05
2019-03-19T08:28:06.671Z,2.52
2019-03-19T08:30:44.325Z,5.05
2019-03-19T08:33:14.021Z,2.43
2019-03-19T08:35:56.550Z,4.03
2019-03-19T08:38:27.658Z,3.05
2019-03-19T08:40:56.762Z,2.60
2019-03-19T08:43:33.433Z,3.08
2019-03-19T08:46:02.574Z,3.50
2019-03-19T08:48:31.896Z,2.25
2019-03-19T08:51:08.492Z,3.17
2019-03-19T08:53:45.560Z,2.67
2019-03-19T08:56:29.240Z,2.35
2019-03-19T08:59:05.763Z,4.00
2019-03-19T09:01:29.241Z,2.58
2019-03-19T09:04:04.392Z,2.45
2019-03-19T09:06:33.928Z,1.77
2019-03-19T09:09:02.654Z,3.17
2019-03-19T09:11:38.875Z,2.65
2019-03-19T09:14:07.603Z,1.55
2019-03-19T09:16:37.260Z,2.90
2019-03-19T09:19:13.321Z,3.42
2019-03-19T09:21:43.368Z,2.17
2019-03-19T09:24:12.130Z,1.95
2019-03-19T09:26:47.888Z,1.47
2019-03-19T09:29:17.399Z,2.90
2019-03-19T09:31:47.278Z,2.93
2019-03-19T09:34:23.292Z,1.77
2019-03-19T09:37:00.155Z,2.10
2019-03-19T09:39:36.151Z,3.37
2019-03-19T09:42:09.241Z,2.92
2019-03-19T09:44:57.830Z,3.30
2019-03-19T09:47:19.609Z,2.42
2019-03-19T09:49:56.116Z,2.55
2019-03-19T09:52:25.789Z,3.33
2019-03-19T09:55:08.375Z,1.92
2019-03-19T09:57:45.124Z,2.70
2019-03-19T10:00:24.945Z,1.90
2019-03-19T10:02:55.868Z,2.02
2019-03-19T10:05:24.578Z,3.35
2019-03-19T10:08:00.144Z,2.08
2019-03-19T10:10:29.052Z,1.30
2019-03-19T10:12:58.837Z,2.42
2019-03-19T10:15:35.309Z,1.27
2019-03-19T10:18:05.285Z,1.92
2019-03-19T10:20:35.024Z,3.37
2019-03-19T10:23:11.152Z,2.47
2019-03-19T10:25:40.799Z,2.00
2019-03-19T10:28:09.702Z,2.80
2019-03-19T10:30:46.190Z,3.92
2019-03-19T10:33:16.230Z,2.00
2019-03-19T10:35:46.044Z,2.60
2019-03-19T10:38:29.728Z,2.35
2019-03-19T10:41:00.026Z,1.92
2019-03-19T10:43:29.893Z,2.05
2019-03-19T10:46:06.637Z,1.50
2019-03-19T10:48:36.758Z,1.67
2019-03-19T10:51:19.193Z,2.20
2019-03-19T10:53:48.041Z,1.40
2019-03-19T10:56:38.911Z,1.40
2019-03-19T10:59:07.624Z,3.27
2019-03-19T11:01:36.316Z,2.20
2019-03-19T11:04:11.450Z,1.97
2019-03-19T11:06:40.190Z,2.17
2019-03-19T11:09:08.913Z,2.72
2019-03-19T11:11:44.652Z,1.45
2019-03-19T11:14:13.365Z,2.57
2019-03-19T11:16:42.071Z,1.50
2019-03-19T11:19:18.032Z,2.35
2019-03-19T11:21:46.808Z,2.22
2019-03-19T11:24:15.936Z,1.00
2019-03-19T11:26:51.584Z,1.43
2019-03-19T11:29:20.341Z,1.35
2019-03-19T11:31:49.053Z,2.12
2019-03-19T11:34:24.682Z,1.43
2019-03-19T11:36:57.816Z,3.90
2019-03-19T11:39:36.829Z,2.37
2019-03-19T11:42:05.584Z,2.37
2019-03-19T11:44:34.332Z,1.75
2019-03-19T11:47:09.701Z,2.02
2019-03-19T11:49:39.033Z,1.98
2019-03-19T11:52:07.772Z,1.12
2019-03-19T11:54:43.053Z,1.30
2019-03-19T11:57:18.455Z,2.75
2019-03-19T12:00:10.915Z,3.58
2019-03-19T12:02:30.742Z,1.20
2019-03-19T12:04:59.437Z,2.10
2019-03-19T12:07:34.644Z,2.00
2019-03-19T12:10:04.067Z,1.30
2019-03-19T12:12:32.792Z,1.85
2019-03-19T12:15:08.365Z,1.82
2019-03-19T12:17:37.087Z,1.75
2019-03-19T12:20:06.297Z,2.47
2019-03-19T12:22:41.398Z,2.87
2019-03-19T12:25:10.311Z,1.40
2019-03-19T12:27:39.029Z,1.35
2019-03-19T12:30:22.219Z,1.87
2019-03-19T12:32:45.805Z,2.22
2019-03-19T12:35:14.889Z,2.20
2019-03-19T12:37:49.799Z,1.12
2019-03-19T13:01:19.754Z,1.40
2019-03-19T13:03:55.794Z,2.20
2019-03-19T13:06:31.512Z,1.82
2019-03-19T13:09:00.304Z,1.22
2019-03-19T13:11:29.056Z,2.17
2019-03-19T13:21:09.286Z,2.20
2019-03-19T13:23:38.037Z,2.37
2019-03-19T13:26:07.196Z,1.92
2019-03-19T13:28:43.438Z,1.47
2019-03-19T13:31:12.213Z,2.33
2019-03-19T13:33:40.962Z,1.47
2019-03-19T13:36:16.623Z,2.80
2019-03-19T13:38:45.420Z,3.00
2019-03-19T13:41:14.330Z,1.27
2019-03-19T13:43:49.204Z,2.10
2019-03-19T13:46:17.916Z,1.20
2019-03-19T13:48:46.712Z,1.65
2019-03-19T13:51:22.117Z,3.50
2019-03-19T13:53:50.812Z,1.55
2019-03-19T13:56:19.541Z,1.95
2019-03-19T13:58:55.167Z,1.20
2019-03-19T14:01:43.732Z,2.33
2019-03-19T14:04:21.140Z,1.25
2019-03-19T14:06:49.844Z,2.25
2019-03-19T14:09:18.812Z,1.40
2019-03-19T14:11:54.738Z,2.12
2019-03-19T14:14:23.486Z,2.10
2019-03-19T14:16:52.173Z,2.50
2019-03-19T14:19:27.471Z,1.80
2019-03-19T14:21:56.224Z,1.87
2019-03-19T14:24:26.130Z,2.30
2019-03-19T14:27:01.786Z,1.50
2019-03-19T14:29:30.465Z,1.95
2019-03-19T14:31:59.162Z,1.27
2019-03-19T14:34:34.532Z,1.97
2019-03-19T14:37:03.220Z,3.15
2019-03-19T14:39:31.927Z,1.47
2019-03-19T14:42:07.229Z,2.42
2019-03-19T14:44:35.965Z,3.75
2019-03-19T14:47:06.023Z,1.85
2019-03-19T14:49:47.055Z,3.37
2019-03-19T14:52:14.433Z,2.20
2019-03-19T14:54:43.153Z,1.60
2019-03-19T14:57:18.748Z,1.75
2019-03-19T14:59:47.599Z,2.58
2019-03-19T15:02:36.565Z,3.80
2019-03-19T15:05:06.031Z,2.00
2019-03-19T15:07:34.715Z,1.92
2019-03-19T15:10:09.980Z,2.00
2019-03-19T15:12:38.695Z,1.42
2019-03-19T15:15:08.235Z,2.10
2019-03-19T15:17:44.444Z,2.05
2019-03-19T15:20:16.787Z,2.30
2019-03-19T15:22:46.307Z,2.25
2019-03-19T15:25:22.453Z,1.57
2019-03-19T15:27:51.208Z,2.35
2019-03-19T15:30:19.970Z,3.35
2019-03-19T15:32:55.834Z,2.00
2019-03-19T15:35:24.541Z,1.30
2019-03-19T15:37:53.254Z,1.85
2019-03-19T15:40:28.545Z,1.75
2019-03-19T15:42:57.981Z,1.52
2019-03-19T15:45:26.710Z,1.90
2019-03-19T15:48:02.340Z,1.60
2019-03-19T15:50:31.116Z,1.50
2019-03-19T15:52:59.866Z,2.12
2019-03-19T15:55:34.974Z,1.37
2019-03-19T15:58:03.711Z,1.20
2019-03-19T16:00:32.513Z,1.87
2019-03-19T16:03:13.751Z,3.00
2019-03-19T16:05:49.524Z,2.60
2019-03-19T16:08:24.455Z,2.10
2019-03-19T16:10:53.152Z,1.65
2019-03-19T16:13:21.809Z,3.00
2019-03-19T16:15:56.689Z,5.00
2019-03-19T16:18:25.389Z,1.60
2019-03-19T16:20:54.172Z,2.05
2019-03-19T16:23:30.733Z,1.57
2019-03-19T16:25:59.568Z,2.02
2019-03-19T16:28:28.272Z,1.60
2019-03-19T16:31:03.088Z,1.52
2019-03-19T16:33:32.379Z,2.83
2019-03-19T16:36:01.169Z,1.77
2019-03-19T16:38:36.497Z,2.25
2019-03-19T16:41:05.293Z,1.75
2019-03-19T16:43:34.068Z,2.55
2019-03-19T16:46:09.759Z,2.30
2019-03-19T16:48:38.539Z,2.47
2019-03-19T16:51:07.218Z,3.52
2019-03-19T16:53:42.983Z,1.70
2019-03-19T16:56:11.690Z,2.63
2019-03-19T16:58:40.462Z,2.60
2019-03-19T17:01:16.068Z,2.65
2019-03-19T17:04:04.121Z,2.62
2019-03-19T17:06:39.393Z,3.30
2019-03-19T17:09:08.258Z,3.37
2019-03-19T17:11:36.943Z,2.85
2019-03-19T17:14:12.918Z,2.02
2019-03-19T17:16:41.622Z,2.85
2019-03-19T17:19:10.307Z,3.25
2019-03-19T17:21:45.940Z,3.98
2019-03-19T17:24:14.646Z,3.87
2019-03-19T17:26:45.452Z,4.95
2019-03-19T17:29:21.053Z,2.52
2019-03-19T17:31:49.881Z,3.02
2019-03-19T17:34:18.596Z,5.20
2019-03-19T17:36:53.624Z,4.57
2019-03-19T17:39:22.412Z,3.35
2019-03-19T17:41:51.154Z,4.53
2019-03-19T17:44:26.220Z,2.60
2019-03-19T17:46:55.041Z,3.23
2019-03-19T17:49:23.864Z,3.77
2019-03-19T17:51:59.205Z,3.87
2019-03-19T17:54:28.042Z,3.75
2019-03-19T17:56:56.838Z,3.70
2019-03-19T17:59:32.454Z,3.67
2019-03-19T18:02:01.168Z,4.87
2019-03-19T18:04:49.241Z,3.83
2019-03-19T18:07:18.604Z,3.77
2019-03-19T18:09:47.368Z,3.65
2019-03-19T18:12:36.911Z,3.05
2019-03-19T18:15:12.938Z,4.25
2019-03-19T18:17:48.532Z,4.60
2019-03-19T18:20:17.435Z,5.63
2019-03-19T18:22:46.428Z,4.10
2019-03-19T18:25:22.405Z,2.98
2019-03-19T18:27:51.283Z,3.33
2019-03-19T18:30:21.239Z,3.52
2019-03-19T18:32:57.011Z,3.80
2019-03-19T18:35:25.946Z,3.52
2019-03-19T18:37:54.779Z,4.70
2019-03-19T18:40:29.956Z,6.45
2019-03-19T18:43:00.338Z,5.33
2019-03-19T18:45:29.172Z,5.00
2019-03-19T18:48:04.118Z,3.77
2019-03-19T18:50:34.215Z,4.65
2019-03-19T18:53:04.862Z,4.25
2019-03-19T18:55:40.545Z,4.35
2019-03-19T18:58:09.306Z,3.97
2019-03-19T19:00:38.238Z,3.67
2019-03-19T19:03:13.800Z,3.75
2019-03-19T19:05:56.040Z,4.05
2019-03-19T19:08:31.699Z,4.30
2019-03-19T19:11:00.513Z,4.08
2019-03-19T19:13:29.354Z,3.85
2019-03-19T19:16:04.550Z,4.00
2019-03-19T19:18:33.416Z,4.65
2019-03-19T19:21:02.333Z,5.03
2019-03-19T19:23:38.463Z,3.50
2019-03-19T19:26:09.096Z,4.53
2019-03-19T19:28:37.900Z,4.25
2019-03-19T19:31:13.384Z,4.72
2019-03-19T19:33:42.102Z,4.92
2019-03-19T19:36:10.912Z,6.37
2019-03-19T19:38:46.864Z,4.78
2019-03-19T19:41:15.617Z,4.50
2019-03-19T19:43:44.367Z,6.37
2019-03-19T19:46:19.725Z,4.20
2019-03-19T19:48:48.531Z,5.15
2019-03-19T19:51:17.347Z,3.73
2019-03-19T19:53:53.213Z,4.10
2019-03-19T19:56:22.037Z,6.35
2019-03-19T19:58:50.927Z,6.25
2019-03-19T20:01:26.212Z,7.12
2019-03-19T20:04:14.538Z,5.30
2019-03-19T20:06:56.890Z,6.08
2019-03-19T20:09:25.860Z,6.12
2019-03-19T20:11:59.119Z,6.95
2019-03-19T20:14:35.157Z,6.25
2019-03-19T20:17:03.933Z,5.35
2019-03-19T20:19:32.708Z,6.80
2019-03-19T20:22:09.231Z,4.97
2019-03-19T20:24:38.060Z,4.95
2019-03-19T20:27:06.823Z,6.50
2019-03-19T20:29:41.751Z,5.07
2019-03-19T20:32:10.599Z,6.22
2019-03-19T20:34:39.358Z,6.15
2019-03-19T20:37:14.614Z,5.50
2019-03-19T20:39:43.364Z,7.37
2019-03-19T20:42:12.220Z,5.12
2019-03-19T20:44:47.810Z,5.60
2019-03-19T20:47:16.573Z,6.62
2019-03-19T20:49:47.765Z,5.78
2019-03-19T20:52:22.341Z,4.77
2019-03-19T20:54:53.111Z,6.33
2019-03-19T20:57:21.842Z,5.05
2019-03-19T20:59:57.463Z,6.25
2019-03-19T21:02:26.236Z,5.25
2019-03-19T21:05:07.616Z,6.80
2019-03-19T21:07:43.280Z,5.75
2019-03-19T21:10:21.542Z,6.33
2019-03-19T21:12:50.336Z,5.47
2019-03-19T21:15:23.395Z,6.80
2019-03-19T21:17:59.021Z,5.70
2019-03-19T21:20:27.853Z,6.40
2019-03-19T21:22:59.058Z,5.90
2019-03-19T21:25:34.140Z,6.03
2019-03-19T21:28:13.212Z,5.08
2019-03-19T21:30:33.524Z,5.03
2019-03-19T21:33:14.959Z,7.22
2019-03-19T21:35:43.800Z,7.37
2019-03-19T21:38:12.537Z,6.17
2019-03-19T21:40:48.120Z,6.77
2019-03-19T21:43:16.943Z,8.05
2019-03-19T21:45:45.680Z,5.45
2019-03-19T21:48:21.244Z,8.35
2019-03-19T21:50:49.981Z,7.10
2019-03-19T21:53:18.750Z,6.03
2019-03-19T21:55:53.977Z,8.20
2019-03-19T21:58:22.777Z,6.42
2019-03-19T22:00:51.511Z,8.95
2019-03-19T22:03:26.462Z,5.40
2019-03-19T22:06:16.506Z,7.60
2019-03-19T22:08:58.136Z,8.55
2019-03-19T22:11:26.902Z,7.53
2019-03-19T22:13:55.730Z,6.37
2019-03-19T22:16:31.470Z,5.50
2019-03-19T22:19:00.219Z,8.20
2019-03-19T22:21:29.032Z,6.50
2019-03-19T22:24:04.311Z,7.42
2019-03-19T22:26:33.047Z,8.50
2019-03-19T22:29:01.826Z,6.67
2019-03-19T22:31:37.789Z,7.30
2019-03-19T22:34:14.072Z,6.05
2019-03-19T22:36:37.346Z,6.92
2019-03-19T22:39:14.978Z,5.87
2019-03-19T22:41:43.916Z,8.45
2019-03-19T22:44:12.795Z,7.33
2019-03-19T22:46:48.768Z,8.58
2019-03-19T22:49:17.685Z,7.10
2019-03-19T22:51:46.894Z,6.03
2019-03-19T22:54:22.360Z,7.50
2019-03-19T22:56:51.202Z,6.90
2019-03-19T22:59:20.085Z,7.15
2019-03-19T23:01:55.359Z,7.03
2019-03-19T23:04:27.465Z,6.78
2019-03-19T23:07:07.521Z,6.35
2019-03-19T23:09:43.138Z,6.97
2019-03-19T23:12:18.763Z,6.58
2019-03-19T23:14:47.544Z,6.33
2019-03-19T23:17:16.291Z,7.15
2019-03-19T23:19:51.899Z,6.40
2019-03-19T23:22:22.037Z,6.80
2019-03-19T23:24:50.816Z,8.25
2019-03-19T23:27:26.311Z,7.47
2019-03-19T23:29:55.083Z,5.87
2019-03-19T23:32:24.818Z,7.67
2019-03-19T23:35:00.733Z,6.55
2019-03-19T23:37:29.558Z,7.33
2019-03-19T23:40:00.494Z,5.75
2019-03-19T23:42:37.925Z,6.08
2019-03-19T23:45:07.649Z,7.13
2019-03-19T23:47:36.550Z,7.73
2019-03-19T23:50:13.221Z,6.53
2019-03-19T23:52:42.131Z,7.80
2019-03-19T23:55:11.916Z,6.87
2019-03-19T23:57:47.876Z,7.08
